createdAt,value
2019-02-06T00:01:10.732Z,25.57
2019-02-06T00:03:40.894Z,27.15
2019-02-06T00:06:19.979Z,25.08
2019-02-06T00:08:50.137Z,27.80
2019-02-06T00:11:20.294Z,25.95
2019-02-06T00:13:51.364Z,26.23
2019-02-06T00:16:21.454Z,24.37
2019-02-06T00:18:56.514Z,27.52
2019-02-06T00:21:26.603Z,24.45
2019-02-06T00:24:09.116Z,25.65
2019-02-06T00:26:39.374Z,25.00
2019-02-06T00:29:10.398Z,24.10
2019-02-06T00:31:41.512Z,25.08
2019-02-06T00:34:17.394Z,22.55
2019-02-06T00:36:47.493Z,22.65
2019-02-06T00:39:17.583Z,23.83
2019-02-06T00:41:48.674Z,24.67
2019-02-06T00:44:19.738Z,22.48
2019-02-06T00:46:49.857Z,21.17
2019-02-06T00:49:21.970Z,22.95
2019-02-06T00:51:52.070Z,22.10
2019-02-06T00:54:24.082Z,24.60
2019-02-06T00:56:59.126Z,23.15
2019-02-06T00:59:29.247Z,22.67
2019-02-06T01:01:59.336Z,22.40
2019-02-06T01:04:29.443Z,22.07
2019-02-06T01:06:59.530Z,20.85
2019-02-06T01:09:30.622Z,21.50
2019-02-06T01:12:02.698Z,19.25
2019-02-06T01:14:32.959Z,21.68
2019-02-06T01:17:03.073Z,23.07
2019-02-06T01:19:33.166Z,21.10
2019-02-06T01:22:04.262Z,20.55
2019-02-06T01:24:35.358Z,20.23
2019-02-06T01:27:05.515Z,22.05
2019-02-06T01:29:36.530Z,19.17
2019-02-06T01:32:06.950Z,20.43
2019-02-06T01:34:37.066Z,21.65
2019-02-06T01:37:08.074Z,17.70
2019-02-06T01:39:40.142Z,21.17
2019-02-06T01:42:13.638Z,22.42
2019-02-06T01:44:45.734Z,19.37
2019-02-06T01:47:15.822Z,19.07
2019-02-06T01:49:45.911Z,20.00
2019-02-06T01:52:17.012Z,19.80
2019-02-06T01:54:47.130Z,20.77
2019-02-06T01:57:17.206Z,20.62
2019-02-06T01:59:47.566Z,19.05
2019-02-06T02:02:18.602Z,20.72
2019-02-06T02:04:49.630Z,19.85
2019-02-06T02:07:29.634Z,21.05
2019-02-06T02:09:59.722Z,21.40
2019-02-06T02:12:29.918Z,19.75
2019-02-06T02:15:00.010Z,18.62
2019-02-06T02:17:36.189Z,19.37
2019-02-06T02:20:21.282Z,20.08
2019-02-06T02:22:51.582Z,18.48
2019-02-06T02:25:27.794Z,19.87
2019-02-06T02:28:02.890Z,20.90
2019-02-06T02:30:43.349Z,22.87
2019-02-06T02:33:16.526Z,21.42
2019-02-06T02:35:46.621Z,20.27
2019-02-06T02:38:17.784Z,21.35
2019-02-06T02:40:48.912Z,21.93
2019-02-06T02:43:19.004Z,20.97
2019-02-06T02:45:49.177Z,20.23
2019-02-06T02:48:25.167Z,20.50
2019-02-06T02:50:55.288Z,21.85
2019-02-06T02:53:26.297Z,21.23
2019-02-06T02:55:56.393Z,19.37
2019-02-06T02:58:33.274Z,19.57
2019-02-06T03:01:20.014Z,21.33
2019-02-06T03:03:57.876Z,20.12
2019-02-06T03:06:28.982Z,19.15
2019-02-06T03:09:01.110Z,20.02
2019-02-06T03:11:31.162Z,21.35
2019-02-06T03:14:01.255Z,20.95
2019-02-06T03:16:37.497Z,19.95
2019-02-06T03:19:14.400Z,23.27
2019-02-06T03:21:44.495Z,21.82
2019-02-06T03:24:15.546Z,24.47
2019-02-06T03:26:45.663Z,20.32
2019-02-06T03:29:18.010Z,20.48
2019-02-06T03:31:56.997Z,21.60
2019-02-06T03:34:27.104Z,20.45
2019-02-06T03:36:57.219Z,22.10
2019-02-06T03:39:27.302Z,23.95
2019-02-06T03:42:06.246Z,25.37
2019-02-06T03:44:38.286Z,23.55
2019-02-06T03:47:09.366Z,22.10
2019-02-06T03:49:42.663Z,21.23
2019-02-06T03:52:13.195Z,20.85
2019-02-06T03:54:43.318Z,24.82
2019-02-06T03:57:13.411Z,21.40
2019-02-06T03:59:51.206Z,21.68
2019-02-06T04:02:23.262Z,23.45
2019-02-06T04:04:53.653Z,23.12
2019-02-06T04:07:30.146Z,20.27
2019-02-06T04:10:02.218Z,20.02
2019-02-06T04:12:39.099Z,23.45
2019-02-06T04:15:11.731Z,18.12
2019-02-06T04:17:41.855Z,22.42
2019-02-06T04:20:17.983Z,21.97
2019-02-06T04:22:48.074Z,19.40
2019-02-06T04:25:18.190Z,20.40
2019-02-06T04:27:51.374Z,20.52
2019-02-06T04:30:25.642Z,21.15
2019-02-06T04:33:01.542Z,21.37
2019-02-06T04:35:35.382Z,21.37
2019-02-06T04:38:25.342Z,21.10
2019-02-06T04:40:59.460Z,19.15
2019-02-06T04:43:30.598Z,24.37
2019-02-06T04:46:00.731Z,19.12
2019-02-06T04:48:33.904Z,20.43
2019-02-06T04:51:04.359Z,21.57
2019-02-06T04:53:34.466Z,22.00
2019-02-06T04:56:04.626Z,21.27
2019-02-06T04:58:34.722Z,23.85
2019-02-06T05:01:08.799Z,20.30
2019-02-06T05:03:39.846Z,22.52
2019-02-06T05:06:12.595Z,21.68
2019-02-06T05:08:43.690Z,24.10
2019-02-06T05:11:13.770Z,21.15
2019-02-06T05:13:51.168Z,23.27
2019-02-06T05:16:27.262Z,20.52
2019-02-06T05:18:57.371Z,19.90
2019-02-06T05:21:27.700Z,22.87
2019-02-06T05:23:58.022Z,23.77
2019-02-06T05:26:28.111Z,23.95
2019-02-06T05:28:58.207Z,22.37
2019-02-06T05:31:28.310Z,21.68
2019-02-06T05:33:59.390Z,21.60
2019-02-06T05:36:34.994Z,24.15
2019-02-06T05:39:09.248Z,21.70
2019-02-06T05:41:46.806Z,21.00
2019-02-06T05:44:16.916Z,23.27
2019-02-06T05:46:47.006Z,26.73
2019-02-06T05:49:17.658Z,21.82
2019-02-06T05:51:53.136Z,26.27
2019-02-06T05:54:23.258Z,20.02
2019-02-06T05:56:54.314Z,21.45
2019-02-06T05:59:25.345Z,22.75
2019-02-06T06:01:55.446Z,19.48
2019-02-06T06:04:26.582Z,21.87
2019-02-06T06:06:59.833Z,21.30
2019-02-06T06:09:29.990Z,18.60
2019-02-06T06:12:01.070Z,24.77
2019-02-06T06:14:37.019Z,23.07
2019-02-06T06:17:16.039Z,22.48
2019-02-06T06:19:47.295Z,22.70
2019-02-06T06:22:17.399Z,24.60
2019-02-06T06:24:48.575Z,21.27
2019-02-06T06:27:20.646Z,23.07
2019-02-06T06:29:55.887Z,22.70
2019-02-06T06:32:26.346Z,22.32
2019-02-06T06:34:56.410Z,24.47
2019-02-06T06:37:26.499Z,20.08
2019-02-06T06:39:57.611Z,22.75
2019-02-06T06:42:29.622Z,21.65
2019-02-06T06:45:16.427Z,24.15
2019-02-06T06:47:48.562Z,22.13
2019-02-06T06:50:28.883Z,24.45
2019-02-06T06:52:59.214Z,21.75
2019-02-06T06:55:29.466Z,23.80
2019-02-06T06:58:00.558Z,27.50
2019-02-06T07:00:32.158Z,22.42
2019-02-06T07:03:03.497Z,26.27
2019-02-06T07:05:34.582Z,25.05
2019-02-06T07:08:09.573Z,24.27
2019-02-06T07:10:38.847Z,22.15
2019-02-06T07:13:08.938Z,25.62
2019-02-06T07:15:39.078Z,26.85
2019-02-06T07:18:10.096Z,24.67
2019-02-06T07:20:40.191Z,26.07
2019-02-06T07:23:11.331Z,28.17
2019-02-06T07:25:41.418Z,23.98
2019-02-06T07:28:11.586Z,26.70
2019-02-06T07:30:41.679Z,27.77
2019-02-06T07:33:11.888Z,25.80
2019-02-06T07:35:42.313Z,27.75
2019-02-06T07:38:23.600Z,26.40
2019-02-06T07:40:44.210Z,26.50
2019-02-06T07:43:14.317Z,27.25
2019-02-06T07:45:44.430Z,24.98
2019-02-06T07:48:15.530Z,25.55
2019-02-06T07:50:46.634Z,25.08
2019-02-06T07:53:17.286Z,26.62
2019-02-06T07:55:47.382Z,27.13
2019-02-06T07:58:17.498Z,28.87
2019-02-06T08:00:47.578Z,26.00
2019-02-06T08:03:18.046Z,26.10
2019-02-06T08:05:48.162Z,25.37
2019-02-06T08:08:18.252Z,28.83
2019-02-06T08:10:48.366Z,27.07
2019-02-06T08:13:18.698Z,29.00
2019-02-06T08:15:48.801Z,25.70
2019-02-06T08:18:19.174Z,27.48
2019-02-06T08:20:49.307Z,28.87
2019-02-06T08:23:19.935Z,26.93
2019-02-06T08:25:50.110Z,27.65
2019-02-06T08:28:20.270Z,28.45
2019-02-06T08:30:50.354Z,26.37
2019-02-06T08:33:20.466Z,25.55
2019-02-06T08:35:51.566Z,27.42
2019-02-06T08:38:21.670Z,27.02
2019-02-06T08:40:51.759Z,28.98
2019-02-06T08:43:21.846Z,30.30
2019-02-06T08:45:53.282Z,28.75
2019-02-06T08:48:23.382Z,29.35
2019-02-06T08:50:53.466Z,30.50
2019-02-06T08:53:23.582Z,28.17
2019-02-06T08:55:53.666Z,28.90
2019-02-06T08:58:23.762Z,28.85
2019-02-06T09:00:54.162Z,28.95
2019-02-06T09:03:24.258Z,29.05
2019-02-06T09:05:54.362Z,31.27
2019-02-06T09:08:24.458Z,25.48
2019-02-06T09:10:54.550Z,26.57
2019-02-06T09:13:24.638Z,28.73
2019-02-06T09:15:54.734Z,25.12
2019-02-06T09:18:24.843Z,26.55
2019-02-06T09:20:54.958Z,27.58
2019-02-06T09:23:25.083Z,25.20
2019-02-06T09:25:57.497Z,26.62
2019-02-06T09:28:28.842Z,27.62
2019-02-06T09:30:58.946Z,24.85
2019-02-06T09:33:29.034Z,27.82
2019-02-06T09:35:59.118Z,25.05
2019-02-06T09:38:29.231Z,26.37
2019-02-06T09:41:00.266Z,25.43
2019-02-06T09:43:31.535Z,25.25
2019-02-06T09:46:02.502Z,24.15
2019-02-06T09:48:32.608Z,22.50
2019-02-06T09:51:02.726Z,22.80
2019-02-06T09:53:32.890Z,24.55
2019-02-06T09:56:04.970Z,25.65
2019-02-06T09:58:42.759Z,25.50
2019-02-06T10:01:15.407Z,23.00
2019-02-06T10:03:48.316Z,22.35
2019-02-06T10:06:19.378Z,21.75
2019-02-06T10:08:49.854Z,23.70
2019-02-06T10:11:21.770Z,22.10
2019-02-06T10:13:51.852Z,21.10
2019-02-06T10:16:23.860Z,24.40
2019-02-06T10:18:53.950Z,22.75
2019-02-06T10:21:30.155Z,23.02
2019-02-06T10:24:00.314Z,22.90
2019-02-06T10:26:37.671Z,21.93
2019-02-06T10:29:07.840Z,23.10
2019-02-06T10:31:38.007Z,21.68
2019-02-06T10:34:14.471Z,22.65
2019-02-06T10:36:44.569Z,22.80
2019-02-06T10:39:15.557Z,21.90
2019-02-06T10:41:45.818Z,23.50
2019-02-06T10:44:15.904Z,23.20
2019-02-06T10:46:46.387Z,21.05
2019-02-06T10:49:16.468Z,21.87
2019-02-06T10:51:47.459Z,21.73
2019-02-06T10:54:17.615Z,20.32
2019-02-06T10:57:01.639Z,22.70
2019-02-06T10:59:31.903Z,22.13
2019-02-06T11:02:01.997Z,21.57
2019-02-06T11:04:32.079Z,19.77
2019-02-06T11:07:02.173Z,21.40
2019-02-06T11:09:32.264Z,20.52
2019-02-06T11:12:02.355Z,20.72
2019-02-06T11:14:35.495Z,22.42
2019-02-06T11:17:14.623Z,21.35
2019-02-06T11:19:56.826Z,19.10
2019-02-06T11:22:28.784Z,21.52
2019-02-06T11:24:58.883Z,20.50
2019-02-06T11:27:28.968Z,20.70
2019-02-06T11:29:59.132Z,19.52
2019-02-06T11:32:31.111Z,18.48
2019-02-06T11:35:02.526Z,18.20
2019-02-06T11:37:32.855Z,18.52
2019-02-06T11:40:09.579Z,17.45
2019-02-06T11:42:39.659Z,17.70
2019-02-06T11:45:23.667Z,18.75
2019-02-06T11:47:57.464Z,18.30
2019-02-06T11:50:31.844Z,17.62
2019-02-06T11:53:02.869Z,15.72
2019-02-06T11:55:33.983Z,16.25
2019-02-06T11:58:07.592Z,18.67
2019-02-06T12:00:54.803Z,19.80
2019-02-06T12:03:24.888Z,18.30
2019-02-06T12:05:56.927Z,18.85
2019-02-06T12:08:31.282Z,18.85
2019-02-06T12:11:02.451Z,18.98
2019-02-06T12:13:40.484Z,21.15
2019-02-06T12:16:11.734Z,18.82
2019-02-06T12:18:45.740Z,17.30
2019-02-06T12:21:17.905Z,19.87
2019-02-06T12:23:48.547Z,19.07
2019-02-06T12:26:18.636Z,19.02
2019-02-06T12:28:48.739Z,18.75
2019-02-06T12:31:18.825Z,19.20
2019-02-06T12:33:49.855Z,19.00
2019-02-06T12:36:20.877Z,17.00
2019-02-06T12:38:53.843Z,18.37
2019-02-06T12:41:23.742Z,18.32
2019-02-06T12:43:53.799Z,19.85
2019-02-06T12:46:24.831Z,18.77
2019-02-06T12:48:55.870Z,18.92
2019-02-06T12:51:26.016Z,17.98
2019-02-06T12:53:57.095Z,16.07
2019-02-06T12:56:27.179Z,17.50
2019-02-06T12:58:59.256Z,18.15
2019-02-06T13:01:29.327Z,16.57
2019-02-06T13:03:59.411Z,18.00
2019-02-06T13:06:30.535Z,18.10
2019-02-06T13:09:00.618Z,18.40
2019-02-06T13:11:30.735Z,15.65
2019-02-06T13:14:00.891Z,16.12
2019-02-06T13:16:31.205Z,16.23
2019-02-06T13:19:03.463Z,17.25
2019-02-06T13:21:34.527Z,16.27
2019-02-06T13:24:06.579Z,15.88
2019-02-06T13:26:36.665Z,17.60
2019-02-06T13:29:11.787Z,15.72
2019-02-06T13:31:49.289Z,17.50
2019-02-06T13:34:19.371Z,18.65
2019-02-06T13:36:49.463Z,18.65
2019-02-06T13:39:19.547Z,15.70
2019-02-06T13:41:50.606Z,16.57
2019-02-06T13:44:29.618Z,15.30
2019-02-06T13:47:01.689Z,16.70
2019-02-06T13:49:33.749Z,17.67
2019-02-06T13:52:05.035Z,15.35
2019-02-06T13:54:40.699Z,17.05
2019-02-06T13:57:10.781Z,17.12
2019-02-06T13:59:41.807Z,17.75
2019-02-06T14:02:11.904Z,18.10
2019-02-06T14:04:42.962Z,17.42
2019-02-06T14:07:13.199Z,17.17
2019-02-06T14:09:44.267Z,16.50
2019-02-06T14:12:15.280Z,15.48
2019-02-06T14:14:46.327Z,16.97
2019-02-06T14:17:18.529Z,17.45
2019-02-06T14:19:48.627Z,17.57
2019-02-06T14:22:18.987Z,16.35
2019-02-06T14:24:49.084Z,16.45
2019-02-06T14:27:33.967Z,18.05
2019-02-06T14:30:23.327Z,18.82
2019-02-06T14:33:17.279Z,17.57
2019-02-06T14:35:57.647Z,17.30
2019-02-06T14:38:58.287Z,17.65
2019-02-06T14:41:42.102Z,17.02
2019-02-06T14:44:37.587Z,15.35
2019-02-06T14:47:15.016Z,18.60
2019-02-06T14:50:15.259Z,17.20
2019-02-06T14:53:16.207Z,17.17
2019-02-06T14:56:05.451Z,18.62
2019-02-06T14:59:14.621Z,16.35
2019-02-06T15:02:22.043Z,18.45
2019-02-06T15:05:31.771Z,18.27
2019-02-06T15:08:09.267Z,17.15
2019-02-06T15:10:44.003Z,18.70
2019-02-06T15:13:45.056Z,17.82
2019-02-06T15:16:21.031Z,16.48
2019-02-06T15:19:07.632Z,16.42
2019-02-06T15:21:44.819Z,17.92
2019-02-06T15:24:45.081Z,18.70
2019-02-06T15:27:25.079Z,17.05
2019-02-06T15:29:59.963Z,19.40
2019-02-06T15:32:50.699Z,16.67
2019-02-06T15:35:49.549Z,21.40
2019-02-06T15:38:29.958Z,18.40
2019-02-06T15:41:16.503Z,19.02
2019-02-06T15:43:58.081Z,21.27
2019-02-06T15:46:50.617Z,18.32
2019-02-06T15:49:40.351Z,18.40
2019-02-06T15:52:49.702Z,16.10
2019-02-06T15:55:55.998Z,17.48
2019-02-06T15:58:36.513Z,17.10
2019-02-06T16:01:21.455Z,17.27
2019-02-06T16:04:27.087Z,18.42
2019-02-06T16:07:10.383Z,18.23
2019-02-06T16:10:21.020Z,17.60
2019-02-06T16:13:11.552Z,16.85
2019-02-06T16:15:52.403Z,16.60
2019-02-06T16:18:45.791Z,19.75
2019-02-06T16:21:22.999Z,19.48
2019-02-06T16:24:21.836Z,22.93
2019-02-06T16:27:28.847Z,16.82
2019-02-06T16:30:28.491Z,17.82
2019-02-06T16:33:07.513Z,18.37
2019-02-06T16:36:02.439Z,15.85
2019-02-06T16:38:48.329Z,18.45
2019-02-06T16:41:28.791Z,17.17
2019-02-06T16:44:24.205Z,16.95
2019-02-06T16:47:19.324Z,18.80
2019-02-06T16:50:16.767Z,16.60
2019-02-06T16:53:18.123Z,17.75
2019-02-06T16:56:28.757Z,17.07
2019-02-06T16:59:11.477Z,18.52
2019-02-06T17:01:58.655Z,15.23
2019-02-06T17:04:48.611Z,15.65
2019-02-06T17:07:32.543Z,17.77
2019-02-06T17:10:30.636Z,16.85
2019-02-06T17:13:41.835Z,16.70
2019-02-06T17:16:25.311Z,15.85
2019-02-06T17:19:13.810Z,19.25
2019-02-06T17:22:22.067Z,16.25
2019-02-06T17:25:17.075Z,18.20
2019-02-06T17:28:00.579Z,17.92
2019-02-06T17:30:57.655Z,16.45
2019-02-06T17:33:48.747Z,18.57
2019-02-06T17:36:43.352Z,17.35
2019-02-06T17:39:29.731Z,16.97
2019-02-06T17:42:15.828Z,19.42
2019-02-06T17:45:19.171Z,17.85
2019-02-06T17:47:56.631Z,15.00
2019-02-06T17:50:49.208Z,16.10
2019-02-06T17:53:32.807Z,15.08
2019-02-06T17:56:05.539Z,16.27
2019-02-06T17:58:37.079Z,16.65
2019-02-06T18:01:13.815Z,17.85
2019-02-06T18:03:47.737Z,17.12
2019-02-06T18:06:18.155Z,16.90
2019-02-06T18:08:56.363Z,17.15
2019-02-06T18:11:21.087Z,17.80
2019-02-06T18:13:52.451Z,16.20
2019-02-06T18:16:25.643Z,19.23
2019-02-06T18:18:56.959Z,17.00
2019-02-06T18:21:31.031Z,19.37
2019-02-06T18:24:02.007Z,16.97
2019-02-06T18:26:35.383Z,17.15
2019-02-06T18:29:06.433Z,16.87
2019-02-06T18:31:36.627Z,17.35
2019-02-06T18:34:12.751Z,17.73
2019-02-06T18:36:42.926Z,16.15
2019-02-06T18:39:15.303Z,19.37
2019-02-06T18:41:46.862Z,18.15
2019-02-06T18:44:17.900Z,17.95
2019-02-06T18:46:49.380Z,19.45
2019-02-06T18:49:19.603Z,19.98
2019-02-06T18:51:54.759Z,16.62
2019-02-06T18:54:39.048Z,17.50
2019-02-06T18:57:09.251Z,18.80
2019-02-06T18:59:41.423Z,15.78
2019-02-06T19:02:13.637Z,15.72
2019-02-06T19:04:45.615Z,16.73
2019-02-06T19:07:16.783Z,17.67
2019-02-06T19:09:54.688Z,18.98
2019-02-06T19:12:25.820Z,17.15
2019-02-06T19:14:58.860Z,17.73
2019-02-06T19:17:31.152Z,16.32
2019-02-06T19:20:12.045Z,17.25
2019-02-06T19:22:42.203Z,16.40
2019-02-06T19:25:15.700Z,16.50
2019-02-06T19:27:45.951Z,13.00
2019-02-06T19:30:33.419Z,14.43
2019-02-06T19:33:05.167Z,17.45
2019-02-06T19:35:42.079Z,16.27
2019-02-06T19:38:14.163Z,15.55
2019-02-06T19:40:44.279Z,15.60
2019-02-06T19:43:15.373Z,14.55
2019-02-06T19:45:46.411Z,14.73
2019-02-06T19:48:19.192Z,14.05
2019-02-06T19:50:50.403Z,17.48
2019-02-06T19:53:21.644Z,17.05
2019-02-06T19:55:51.897Z,17.80
2019-02-06T19:58:25.063Z,18.87
2019-02-06T20:00:55.179Z,19.20
2019-02-06T20:03:34.343Z,20.60
2019-02-06T20:06:05.756Z,20.00
2019-02-06T20:08:38.957Z,18.67
2019-02-06T20:11:12.391Z,19.37
2019-02-06T20:13:44.517Z,17.45
2019-02-06T20:16:14.620Z,16.95
2019-02-06T20:18:44.783Z,18.02
2019-02-06T20:21:14.883Z,17.52
2019-02-06T20:23:45.039Z,18.32
2019-02-06T20:26:16.076Z,18.20
2019-02-06T20:28:47.111Z,18.00
2019-02-06T20:31:17.221Z,17.15
2019-02-06T20:33:48.297Z,17.82
2019-02-06T20:36:19.311Z,18.55
2019-02-06T20:38:51.988Z,15.03
2019-02-06T20:41:23.307Z,18.65
2019-02-06T20:43:58.375Z,17.17
2019-02-06T20:46:28.472Z,17.32
2019-02-06T20:48:59.623Z,15.75
2019-02-06T20:51:29.755Z,17.77
2019-02-06T20:53:59.841Z,17.15
2019-02-06T20:56:30.319Z,16.40
2019-02-06T20:59:06.651Z,16.60
2019-02-06T21:01:37.696Z,16.60
2019-02-06T21:04:08.842Z,19.80
2019-02-06T21:06:38.931Z,19.67
2019-02-06T21:09:12.533Z,18.82
2019-02-06T21:11:42.647Z,17.52
2019-02-06T21:14:12.847Z,18.15
2019-02-06T21:16:43.267Z,20.15
2019-02-06T21:19:13.359Z,21.05
2019-02-06T21:21:43.487Z,18.32
2019-02-06T21:24:13.756Z,20.70
2019-02-06T21:26:50.868Z,20.90
2019-02-06T21:29:23.131Z,22.60
2019-02-06T21:31:54.177Z,23.75
2019-02-06T21:34:24.341Z,20.23
2019-02-06T21:36:55.564Z,19.70
2019-02-06T21:39:27.280Z,20.32
2019-02-06T21:41:58.533Z,20.00
2019-02-06T21:44:28.643Z,17.80
2019-02-06T21:46:58.811Z,18.70
2019-02-06T21:49:29.307Z,19.00
2019-02-06T21:51:59.459Z,19.65
2019-02-06T21:54:31.483Z,19.57
2019-02-06T21:57:01.575Z,17.73
2019-02-06T21:59:33.739Z,18.57
2019-02-06T22:02:09.900Z,18.42
2019-02-06T22:04:42.172Z,18.45
2019-02-06T22:07:12.255Z,17.80
2019-02-06T22:09:42.363Z,20.35
2019-02-06T22:12:13.368Z,17.27
2019-02-06T22:14:43.639Z,20.50
2019-02-06T22:17:15.677Z,16.77
2019-02-06T22:19:49.568Z,16.77
2019-02-06T22:22:20.604Z,18.25
2019-02-06T22:24:52.604Z,15.80
2019-02-06T22:27:23.779Z,17.30
2019-02-06T22:29:53.967Z,16.65
2019-02-06T22:32:24.067Z,17.42
2019-02-06T22:34:55.139Z,18.73
2019-02-06T22:37:25.323Z,15.63
2019-02-06T22:39:55.427Z,17.55
2019-02-06T22:42:25.532Z,17.32
2019-02-06T22:44:55.637Z,17.02
2019-02-06T22:47:25.735Z,16.87
2019-02-06T22:49:57.764Z,15.15
2019-02-06T22:52:27.863Z,16.95
2019-02-06T22:54:58.226Z,17.45
2019-02-06T22:57:28.332Z,18.62
2019-02-06T22:59:58.452Z,17.00
2019-02-06T23:02:36.739Z,17.90
2019-02-06T23:05:08.804Z,15.93
2019-02-06T23:07:42.102Z,17.00
2019-02-06T23:10:12.416Z,16.97
2019-02-06T23:12:42.920Z,16.32
2019-02-06T23:15:14.948Z,18.60
2019-02-06T23:17:45.048Z,18.00
2019-02-06T23:20:15.528Z,16.73
2019-02-06T23:22:50.597Z,15.58
2019-02-06T23:25:20.963Z,19.12
2019-02-06T23:27:51.114Z,20.43
2019-02-06T23:30:21.168Z,18.70
2019-02-06T23:32:52.296Z,18.10
2019-02-06T23:35:22.412Z,17.85
2019-02-06T23:37:52.510Z,20.08
2019-02-06T23:40:22.608Z,15.18
2019-02-06T23:42:53.704Z,17.92
2019-02-06T23:45:24.185Z,16.55
2019-02-06T23:47:54.272Z,18.60
2019-02-06T23:50:25.276Z,17.27
2019-02-06T23:52:56.324Z,14.90
2019-02-06T23:55:27.374Z,16.00
2019-02-06T23:57:58.423Z,18.27
